Maersk Essen — V7UQ8 — position and weather

sailwx.info

Track history (hours):
 
Tides and Currents Weather Stations Pressure Air Temp Water Temp Dewpoint Dewpoint Depression Visibility Wind Speed Wind Dir Waves Ship Positions

Maersk Essen

Last reported at 2015-May-22 14:25 UTC. Time now 2015-May-27 01:54 UTC.
Position N 01°58' E 102°14'.

Length 367 m; draft 12.8 m.

Type: Ship (hazmat cat A). MMSI: 538004007.

Date/timePositionNaut miles runAvg speedWind from/ knotsBaromVisibWave heightAir tempDewpointWater temp
2015-May-22 14:25N 01°58' E 102°14'1820.6
2015-May-22 13:33N 01°49' E 102°29'2821.5
2015-May-22 12:16N 01°36' E 102°54'60 1.8
2015-May-21 03:26N 01°11' E 103°48'1112.3
2015-May-21 02:33N 01°15' E 103°58'1212.3
2015-May-21 01:33N 01°17' E 104°10'  
2015-May-18 00:33N 22°07' E 114°28'1717.3
2015-May-17 23:33N 22°25' E 114°28'1413.0
2015-May-17 22:30N 22°34' E 114°18'0 0.0
2015-May-17 10:23N 22°34' E 114°18'21 7.2
2015-May-17 07:31N 22°18' E 114°31'1312.1
2015-May-17 06:26N 22°08' E 114°22'1211.8
2015-May-17 05:26N 22°12' E 114°10'8 9.0
2015-May-17 04:33N 22°20' E 114°07'1 0.6
2015-May-17 03:31N 22°20' E 114°07'0 0.0
2015-May-17 02:13N 22°20' E 114°07'0 0.0
2015-May-17 01:31N 22°20' E 114°07'0 0.0
2015-May-17 00:25N 22°20' E 114°07'0 0.0
2015-May-16 23:31N 22°20' E 114°07'0 0.0
2015-May-16 22:31N 22°20' E 114°07'0 0.0
2015-May-16 21:31N 22°20' E 114°07'0 0.0
2015-May-16 20:28N 22°20' E 114°07'0 0.0
2015-May-16 19:28N 22°20' E 114°07'0 0.0
2015-May-16 18:28N 22°20' E 114°07'0 0.0
2015-May-16 17:19N 22°20' E 114°07'0 0.0
2015-May-16 16:28N 22°20' E 114°07'0 0.0
2015-May-16 15:04N 22°20' E 114°07'0 0.0
2015-May-16 14:31N 22°20' E 114°07'0 0.1
2015-May-16 13:33N 22°20' E 114°07'8 7.4
2015-May-16 12:33N 22°13' E 114°10'8 7.2
2015-May-16 11:26N 22°09' E 114°17'1012.0
2015-May-16 10:33N 22°10' E 114°29'21720.9
2015-May-16 00:08N 23°29' E 118°08'1221.5
2015-May-15 23:33N 23°35' E 118°20'12821.3
2015-May-15 17:31N 25°04' E 120°01'31620.9
2015-May-15 02:24N 29°39' E 122°57'5117.8
2015-May-14 23:33N 30°28' E 122°43'1717.3
2015-May-14 22:33N 30°32' E 122°23'1110.6
2015-May-14 21:32N 30°34' E 122°11'9 8.6
2015-May-14 20:32N 30°38' E 122°03'0 0.0
2015-May-14 07:33N 30°38' E 122°03'8 8.5
2015-May-14 06:34N 30°34' E 122°11'8 8.3
2015-May-14 05:33N 30°33' E 122°21'5 5.2
2015-May-14 04:33N 30°32' E 122°27'7 7.5
2015-May-14 03:33N 30°29' E 122°35'0 0.0
2015-May-13 21:26N 30°29' E 122°34'0 0.0
2015-May-13 20:32N 30°29' E 122°34'0 0.0
2015-May-13 19:32N 30°29' E 122°34'0 0.1
2015-May-13 18:32N 30°29' E 122°35'0 0.1
2015-May-13 17:29N 30°29' E 122°35'0 0.0
2015-May-13 16:29N 30°29' E 122°35'0 0.0
2015-May-13 15:32N 30°29' E 122°35'0 0.1
2015-May-13 14:32N 30°29' E 122°35'0 0.0
2015-May-13 13:26N 30°29' E 122°35'0 0.1
2015-May-13 12:26N 30°29' E 122°35'0 0.0
2015-May-13 07:20N 30°29' E 122°34'0 0.0
2015-May-13 06:05N 30°29' E 122°35'0 0.2
2015-May-13 05:32N 30°29' E 122°35'0 0.1
2015-May-13 04:14N 30°29' E 122°35'0 0.0
2015-May-13 02:17N 30°29' E 122°35'0 0.0
2015-May-13 01:32N 30°29' E 122°35'0 0.0
2015-May-12 21:14N 30°29' E 122°34'0 0.1
2015-May-12 20:32N 30°29' E 122°34'4 3.8
2015-May-12 19:33N 30°30' E 122°39'1211.0
2015-May-12 18:30N 30°25' E 122°51'1611.2
2015-May-12 17:05N 30°14' E 123°04'711.0
2015-May-12 16:28N 30°07' E 123°06'2211.6
2015-May-12 14:33N 29°51' E 122°49'  
Track history (hours):
 
Tides and Currents Weather Stations Pressure Air Temp Water Temp Dewpoint Dewpoint Depression Visibility Wind Speed Wind Dir Waves Ship Positions

Maersk Essen

Last reported at 2015-May-22 14:25 UTC. Time now 2015-May-27 01:54 UTC.
Position N 01°58' E 102°14'.

Length 367 m; draft 12.8 m.

Type: Ship (hazmat cat A). MMSI: 538004007.

Date/timePositionNaut miles runAvg speedWind from/ knotsBaromVisibWave heightAir tempDewpointWater temp
2015-May-22 14:25N 01°58' E 102°14'1820.6
2015-May-22 13:33N 01°49' E 102°29'2821.5
2015-May-22 12:16N 01°36' E 102°54'60 1.8
2015-May-21 03:26N 01°11' E 103°48'1112.3
2015-May-21 02:33N 01°15' E 103°58'1212.3
2015-May-21 01:33N 01°17' E 104°10'  
2015-May-18 00:33N 22°07' E 114°28'1717.3
2015-May-17 23:33N 22°25' E 114°28'1413.0
2015-May-17 22:30N 22°34' E 114°18'0 0.0
2015-May-17 10:23N 22°34' E 114°18'21 7.2
2015-May-17 07:31N 22°18' E 114°31'1312.1
2015-May-17 06:26N 22°08' E 114°22'1211.8
2015-May-17 05:26N 22°12' E 114°10'8 9.0
2015-May-17 04:33N 22°20' E 114°07'1 0.6
2015-May-17 03:31N 22°20' E 114°07'0 0.0
2015-May-17 02:13N 22°20' E 114°07'0 0.0
2015-May-17 01:31N 22°20' E 114°07'0 0.0
2015-May-17 00:25N 22°20' E 114°07'0 0.0
2015-May-16 23:31N 22°20' E 114°07'0 0.0
2015-May-16 22:31N 22°20' E 114°07'0 0.0
2015-May-16 21:31N 22°20' E 114°07'0 0.0
2015-May-16 20:28N 22°20' E 114°07'0 0.0
2015-May-16 19:28N 22°20' E 114°07'0 0.0
2015-May-16 18:28N 22°20' E 114°07'0 0.0
2015-May-16 17:19N 22°20' E 114°07'0 0.0
2015-May-16 16:28N 22°20' E 114°07'0 0.0
2015-May-16 15:04N 22°20' E 114°07'0 0.0
2015-May-16 14:31N 22°20' E 114°07'0 0.1
2015-May-16 13:33N 22°20' E 114°07'8 7.4
2015-May-16 12:33N 22°13' E 114°10'8 7.2
2015-May-16 11:26N 22°09' E 114°17'1012.0
2015-May-16 10:33N 22°10' E 114°29'21720.9
2015-May-16 00:08N 23°29' E 118°08'1221.5
2015-May-15 23:33N 23°35' E 118°20'12821.3
2015-May-15 17:31N 25°04' E 120°01'31620.9
2015-May-15 02:24N 29°39' E 122°57'5117.8
2015-May-14 23:33N 30°28' E 122°43'1717.3
2015-May-14 22:33N 30°32' E 122°23'1110.6
2015-May-14 21:32N 30°34' E 122°11'9 8.6
2015-May-14 20:32N 30°38' E 122°03'0 0.0
2015-May-14 07:33N 30°38' E 122°03'8 8.5
2015-May-14 06:34N 30°34' E 122°11'8 8.3
2015-May-14 05:33N 30°33' E 122°21'5 5.2
2015-May-14 04:33N 30°32' E 122°27'7 7.5
2015-May-14 03:33N 30°29' E 122°35'0 0.0
2015-May-13 21:26N 30°29' E 122°34'0 0.0
2015-May-13 20:32N 30°29' E 122°34'0 0.0
2015-May-13 19:32N 30°29' E 122°34'0 0.1
2015-May-13 18:32N 30°29' E 122°35'0 0.1
2015-May-13 17:29N 30°29' E 122°35'0 0.0
2015-May-13 16:29N 30°29' E 122°35'0 0.0
2015-May-13 15:32N 30°29' E 122°35'0 0.1
2015-May-13 14:32N 30°29' E 122°35'0 0.0
2015-May-13 13:26N 30°29' E 122°35'0 0.1
2015-May-13 12:26N 30°29' E 122°35'0 0.0
2015-May-13 07:20N 30°29' E 122°34'0 0.0
2015-May-13 06:05N 30°29' E 122°35'0 0.2
2015-May-13 05:32N 30°29' E 122°35'0 0.1
2015-May-13 04:14N 30°29' E 122°35'0 0.0
2015-May-13 02:17N 30°29' E 122°35'0 0.0
2015-May-13 01:32N 30°29' E 122°35'0 0.0
2015-May-12 21:14N 30°29' E 122°34'0 0.1
2015-May-12 20:32N 30°29' E 122°34'4 3.8
2015-May-12 19:33N 30°30' E 122°39'1211.0
2015-May-12 18:30N 30°25' E 122°51'1611.2
2015-May-12 17:05N 30°14' E 123°04'711.0
2015-May-12 16:28N 30°07' E 123°06'2211.6
2015-May-12 14:33N 29°51' E 122°49'  

Dump ship's entire track history